createdAt,value
2023-02-22T00:00:59.787Z,87.27
2023-02-22T00:02:11.182Z,87.43
2023-02-22T00:03:16.275Z,87.41
2023-02-22T00:04:21.120Z,87.24
2023-02-22T00:05:24.878Z,87.72
2023-02-22T00:06:26.724Z,87.89
2023-02-22T00:07:29.753Z,87.81
2023-02-22T00:08:34.268Z,87.67
2023-02-22T00:09:36.063Z,87.70
2023-02-22T00:10:39.505Z,87.70
2023-02-22T00:11:46.497Z,87.94
2023-02-22T00:12:52.483Z,88.33
2023-02-22T00:13:57.333Z,88.32
2023-02-22T00:15:00.236Z,88.04
2023-02-22T00:16:02.468Z,88.02
2023-02-22T00:17:05.262Z,88.42
2023-02-22T00:18:07.732Z,88.47
2023-02-22T00:19:10.732Z,88.68
2023-02-22T00:20:15.474Z,88.20
2023-02-22T00:21:19.522Z,88.41
2023-02-22T00:22:21.306Z,88.26
2023-02-22T00:23:25.365Z,88.29
2023-02-22T00:24:29.419Z,88.41
2023-02-22T00:25:32.482Z,88.48
2023-02-22T00:26:55.888Z,88.51
2023-02-22T00:28:00.354Z,88.98
2023-02-22T00:29:03.079Z,89.22
2023-02-22T00:30:06.003Z,88.89
2023-02-22T00:31:09.479Z,89.23
2023-02-22T00:32:11.332Z,89.60
2023-02-22T00:33:17.307Z,89.27
2023-02-22T00:34:19.190Z,89.21
2023-02-22T00:35:23.757Z,89.42
2023-02-22T00:36:27.320Z,89.36
2023-02-22T00:37:31.676Z,89.12
2023-02-22T00:38:33.459Z,89.39
2023-02-22T00:39:38.251Z,89.60
2023-02-22T00:40:40.389Z,89.68
2023-02-22T00:41:43.312Z,89.63
2023-02-22T00:42:46.326Z,89.45
2023-02-22T00:43:50.769Z,89.20
2023-02-22T00:44:54.420Z,88.96
2023-02-22T00:45:58.348Z,89.24
2023-02-22T00:47:00.570Z,88.96
2023-02-22T00:48:05.388Z,89.07
2023-02-22T00:49:07.221Z,88.91
2023-02-22T00:50:11.047Z,88.86
2023-02-22T00:51:13.265Z,88.72
2023-02-22T00:52:16.003Z,88.70
2023-02-22T00:53:17.976Z,88.75
2023-02-22T00:54:20.764Z,88.83
2023-02-22T00:55:24.971Z,88.41
2023-02-22T00:56:27.813Z,88.59
2023-02-22T00:57:29.863Z,88.55
2023-02-22T00:58:32.865Z,88.32
2023-02-22T00:59:36.691Z,88.29
2023-02-22T01:00:41.740Z,87.88
2023-02-22T01:01:43.609Z,88.21
2023-02-22T01:02:50.749Z,88.10
2023-02-22T01:03:52.812Z,87.82
2023-02-22T01:04:56.500Z,88.20
2023-02-22T01:05:58.850Z,88.04
2023-02-22T01:07:01.675Z,88.35
2023-02-22T01:08:06.597Z,88.27
2023-02-22T01:09:10.191Z,88.07
2023-02-22T01:10:12.889Z,87.89
2023-02-22T01:11:17.191Z,87.92
2023-02-22T01:12:21.131Z,87.64
2023-02-22T01:13:24.861Z,87.96
2023-02-22T01:14:28.120Z,88.06
2023-02-22T01:15:33.739Z,88.05
2023-02-22T01:16:36.010Z,88.03
2023-02-22T01:17:41.654Z,88.07
2023-02-22T01:18:44.083Z,88.06
2023-02-22T01:19:46.812Z,87.89
2023-02-22T01:20:48.574Z,88.11
2023-02-22T01:21:51.602Z,87.91
2023-02-22T01:22:55.275Z,88.17
2023-02-22T01:23:58.678Z,87.71
2023-02-22T01:25:01.096Z,87.85
2023-02-22T01:26:05.776Z,87.67
2023-02-22T01:27:07.602Z,87.75
2023-02-22T01:28:10.808Z,87.49
2023-02-22T01:29:15.108Z,87.41
2023-02-22T01:30:21.340Z,87.74
2023-02-22T01:31:24.794Z,87.47
2023-02-22T01:32:27.698Z,87.59
2023-02-22T01:33:32.280Z,87.45
2023-02-22T01:34:34.832Z,87.36
2023-02-22T01:35:40.782Z,87.47
2023-02-22T01:36:42.921Z,87.44
2023-02-22T01:37:46.857Z,87.83
2023-02-22T01:38:48.730Z,87.90
2023-02-22T01:39:51.488Z,88.08
2023-02-22T01:40:54.301Z,88.13
2023-02-22T01:41:56.257Z,87.95
2023-02-22T01:43:01.114Z,88.16
2023-02-22T01:44:18.548Z,87.97
2023-02-22T01:45:45.110Z,87.70
2023-02-22T01:46:48.366Z,87.73
2023-02-22T01:47:51.099Z,87.70
2023-02-22T01:48:56.399Z,87.35
2023-02-22T01:50:00.087Z,87.46
2023-02-22T01:51:10.589Z,86.94
2023-02-22T01:52:17.053Z,86.99
2023-02-22T01:53:20.654Z,86.61
2023-02-22T01:54:26.273Z,86.68
2023-02-22T01:55:29.275Z,86.16
2023-02-22T01:56:35.208Z,86.46
2023-02-22T01:57:39.190Z,86.54
2023-02-22T01:58:42.773Z,86.23
2023-02-22T01:59:48.683Z,85.91
2023-02-22T02:00:50.961Z,85.58
2023-02-22T02:01:55.238Z,85.74
2023-02-22T02:03:02.648Z,86.05
2023-02-22T02:04:07.524Z,85.88
2023-02-22T02:05:09.697Z,85.81
2023-02-22T02:06:15.132Z,85.39
2023-02-22T02:07:19.272Z,84.79
2023-02-22T02:08:28.571Z,85.29
2023-02-22T02:09:35.970Z,85.45
2023-02-22T02:10:38.849Z,85.18
2023-02-22T02:11:42.134Z,85.39
2023-02-22T02:12:47.933Z,85.18
2023-02-22T02:13:51.730Z,85.39
2023-02-22T02:14:53.564Z,85.31
2023-02-22T02:15:57.358Z,85.48
2023-02-22T02:17:01.552Z,85.13
2023-02-22T02:18:07.962Z,85.51
2023-02-22T02:19:17.161Z,85.62
2023-02-22T02:20:26.214Z,85.85
2023-02-22T02:22:02.247Z,85.66
2023-02-22T02:23:19.253Z,86.37
2023-02-22T02:24:57.458Z,86.27
2023-02-22T02:26:21.062Z,86.28
2023-02-22T02:27:25.460Z,86.47
2023-02-22T02:29:01.365Z,86.66
2023-02-22T02:30:47.100Z,86.48
2023-02-22T02:32:14.709Z,87.05
2023-02-22T02:33:21.252Z,87.33
2023-02-22T02:34:28.928Z,87.27
2023-02-22T02:35:40.892Z,87.61
2023-02-22T02:36:47.615Z,87.40
2023-02-22T02:37:57.655Z,87.90
2023-02-22T02:39:05.830Z,88.00
2023-02-22T02:40:17.804Z,88.25
2023-02-22T02:41:25.282Z,88.14
2023-02-22T02:42:33.830Z,88.17
2023-02-22T02:43:43.356Z,88.29
2023-02-22T02:44:48.803Z,88.25
2023-02-22T02:45:57.074Z,88.65
2023-02-22T02:47:03.327Z,88.76
2023-02-22T02:48:07.349Z,88.74
2023-02-22T02:49:12.087Z,88.60
2023-02-22T02:50:18.347Z,88.35
2023-02-22T02:51:21.593Z,88.01
2023-02-22T02:52:27.145Z,88.06
2023-02-22T02:53:33.789Z,87.93
2023-02-22T02:54:40.877Z,88.03
2023-02-22T02:55:43.240Z,87.93
2023-02-22T02:56:47.025Z,88.08
2023-02-22T02:57:48.954Z,87.89
2023-02-22T02:58:53.139Z,87.85
2023-02-22T02:59:58.034Z,87.72
2023-02-22T03:01:04.421Z,88.19
2023-02-22T03:02:17.223Z,87.88
2023-02-22T03:03:47.578Z,88.30
2023-02-22T03:05:01.390Z,88.52
2023-02-22T03:06:26.836Z,88.33
2023-02-22T03:07:35.019Z,88.62
2023-02-22T03:08:43.079Z,88.81
2023-02-22T03:09:55.009Z,88.52
2023-02-22T03:11:03.632Z,88.72
2023-02-22T03:12:15.359Z,88.64
2023-02-22T03:13:25.095Z,88.23
2023-02-22T03:14:37.048Z,88.32
2023-02-22T03:15:46.133Z,87.91
2023-02-22T03:16:52.346Z,88.07
2023-02-22T03:18:03.146Z,88.05
2023-02-22T03:19:09.487Z,87.79
2023-02-22T03:20:14.561Z,87.60
2023-02-22T03:21:23.657Z,87.80
2023-02-22T03:22:28.952Z,87.59
2023-02-22T03:23:36.093Z,88.13
2023-02-22T03:24:42.933Z,87.81
2023-02-22T03:25:50.330Z,88.32
2023-02-22T03:26:58.444Z,88.03
2023-02-22T03:28:03.889Z,88.42
2023-02-22T03:29:07.733Z,88.16
2023-02-22T03:30:13.371Z,88.71
2023-02-22T03:31:19.322Z,88.83
2023-02-22T03:32:23.818Z,88.87
2023-02-22T03:33:33.878Z,89.16
2023-02-22T03:34:40.769Z,89.65
2023-02-22T03:35:48.134Z,89.41
2023-02-22T03:36:56.864Z,89.45
2023-02-22T03:38:02.978Z,89.72
2023-02-22T03:39:08.855Z,89.38
2023-02-22T03:40:14.021Z,89.69
2023-02-22T03:41:21.177Z,89.52
2023-02-22T03:42:25.502Z,89.62
2023-02-22T03:43:31.630Z,89.41
2023-02-22T03:44:38.690Z,89.09
2023-02-22T03:45:44.614Z,88.91
2023-02-22T03:46:48.806Z,88.85
2023-02-22T03:47:54.857Z,88.93
2023-02-22T03:49:00.319Z,88.71
2023-02-22T03:50:10.706Z,88.79
2023-02-22T03:51:16.708Z,88.65
2023-02-22T03:52:23.428Z,88.75
2023-02-22T03:53:25.491Z,89.10
2023-02-22T03:54:28.697Z,89.52
2023-02-22T03:55:31.773Z,89.44
2023-02-22T03:56:38.615Z,89.68
2023-02-22T03:57:43.175Z,89.79
2023-02-22T03:58:48.882Z,90.20
2023-02-22T03:59:50.870Z,90.21
2023-02-22T04:00:53.975Z,90.69
2023-02-22T04:01:56.828Z,90.59
2023-02-22T04:03:00.084Z,91.15
2023-02-22T04:04:03.764Z,91.16
2023-02-22T04:05:08.389Z,90.87
2023-02-22T04:06:10.793Z,91.18
2023-02-22T04:07:13.936Z,90.95
2023-02-22T04:08:16.254Z,91.16
2023-02-22T04:09:19.425Z,91.12
2023-02-22T04:10:22.442Z,91.08
2023-02-22T04:11:25.651Z,90.98
2023-02-22T04:12:27.494Z,91.14
2023-02-22T04:13:34.501Z,91.57
2023-02-22T04:14:36.319Z,91.35
2023-02-22T04:15:39.118Z,91.41
2023-02-22T04:16:43.714Z,91.52
2023-02-22T04:17:46.683Z,91.29
2023-02-22T04:18:49.934Z,91.27
2023-02-22T04:19:55.975Z,91.29
2023-02-22T04:20:59.633Z,91.35
2023-02-22T04:22:10.334Z,91.48
2023-02-22T04:23:12.399Z,91.46
2023-02-22T04:24:17.323Z,91.50
2023-02-22T04:25:19.236Z,91.19
2023-02-22T04:26:23.579Z,91.65
2023-02-22T04:27:29.886Z,91.52
2023-02-22T04:28:33.630Z,91.58
2023-02-22T04:29:45.178Z,92.09
2023-02-22T04:30:48.070Z,91.83
2023-02-22T04:31:52.332Z,91.92
2023-02-22T04:32:56.234Z,91.36
2023-02-22T04:33:58.268Z,90.86
2023-02-22T04:35:07.281Z,90.83
2023-02-22T04:36:10.716Z,91.26
2023-02-22T04:37:14.391Z,91.48
2023-02-22T04:38:16.233Z,91.48
2023-02-22T04:39:19.154Z,91.88
2023-02-22T04:40:21.311Z,91.63
2023-02-22T04:41:25.623Z,91.64
2023-02-22T04:42:27.756Z,92.05
2023-02-22T04:43:31.407Z,91.91
2023-02-22T04:44:40.677Z,92.01
2023-02-22T04:45:43.393Z,91.97
2023-02-22T04:46:46.720Z,91.77
2023-02-22T04:47:50.816Z,91.89
2023-02-22T04:48:53.000Z,91.92
2023-02-22T04:50:00.707Z,91.87
2023-02-22T04:51:04.204Z,91.98
2023-02-22T04:52:08.140Z,92.49
2023-02-22T04:53:12.977Z,92.02
2023-02-22T04:54:17.396Z,91.72
2023-02-22T04:55:22.509Z,91.80
2023-02-22T04:56:26.171Z,92.19
2023-02-22T04:57:27.955Z,91.89
2023-02-22T04:58:31.774Z,92.18
2023-02-22T04:59:34.311Z,92.42
2023-02-22T05:00:37.980Z,92.09
2023-02-22T05:01:40.878Z,91.97
2023-02-22T05:02:43.675Z,92.26
2023-02-22T05:03:45.487Z,92.33
2023-02-22T05:04:48.325Z,92.57
2023-02-22T05:05:51.891Z,92.29
2023-02-22T05:06:55.985Z,92.21
2023-02-22T05:07:57.788Z,92.43
2023-02-22T05:09:00.600Z,92.36
2023-02-22T05:10:02.765Z,92.43
2023-02-22T05:11:06.183Z,92.22
2023-02-22T05:12:08.188Z,92.22
2023-02-22T05:13:11.132Z,92.58
2023-02-22T05:14:12.921Z,92.74
2023-02-22T05:15:17.786Z,92.30
2023-02-22T05:16:19.789Z,92.53
2023-02-22T05:17:22.549Z,92.95
2023-02-22T05:18:24.552Z,92.61
2023-02-22T05:19:27.276Z,92.78
2023-02-22T05:20:31.405Z,93.23
2023-02-22T05:21:34.320Z,92.77
2023-02-22T05:22:37.437Z,92.76
2023-02-22T05:23:41.398Z,92.79
2023-02-22T05:24:43.869Z,93.17
2023-02-22T05:25:46.927Z,92.80
2023-02-22T05:26:51.211Z,92.71
2023-02-22T05:27:54.662Z,92.71
2023-02-22T05:28:56.459Z,92.30
2023-02-22T05:29:59.456Z,92.39
2023-02-22T05:31:01.308Z,92.99
2023-02-22T05:32:04.267Z,93.06
2023-02-22T05:33:06.594Z,92.92
2023-02-22T05:34:09.420Z,93.06
2023-02-22T05:35:11.172Z,93.75
2023-02-22T05:36:13.923Z,93.68
2023-02-22T05:37:15.855Z,94.01
2023-02-22T05:38:20.014Z,94.05
2023-02-22T05:39:21.886Z,94.08
2023-02-22T05:40:26.704Z,94.34
2023-02-22T05:41:28.858Z,94.23
2023-02-22T05:42:31.660Z,94.09
2023-02-22T05:43:33.542Z,93.96
2023-02-22T05:44:36.327Z,93.91
2023-02-22T05:45:38.155Z,94.14
2023-02-22T05:46:41.001Z,94.47
2023-02-22T05:47:42.810Z,94.38
2023-02-22T05:48:45.570Z,94.14
2023-02-22T05:49:47.833Z,94.10
2023-02-22T05:50:50.946Z,94.29
2023-02-22T05:51:52.702Z,93.82
2023-02-22T05:52:56.350Z,94.17
2023-02-22T05:53:59.555Z,94.04
2023-02-22T05:55:02.281Z,94.36
2023-02-22T05:56:04.787Z,94.26
2023-02-22T05:57:07.705Z,94.62
2023-02-22T05:58:09.787Z,94.13
2023-02-22T05:59:12.595Z,94.43
2023-02-22T06:00:17.883Z,94.26
2023-02-22T06:01:21.065Z,94.05
2023-02-22T06:02:24.186Z,94.08
2023-02-22T06:03:25.953Z,94.24
2023-02-22T06:04:28.835Z,93.87
2023-02-22T06:05:31.626Z,93.97
2023-02-22T06:06:34.377Z,94.10
2023-02-22T06:07:36.215Z,93.83
2023-02-22T06:08:39.070Z,94.08
2023-02-22T06:09:42.325Z,93.66
2023-02-22T06:10:45.296Z,93.66
2023-02-22T06:11:47.157Z,93.68
2023-02-22T06:12:50.787Z,93.84
2023-02-22T06:13:54.541Z,93.85
2023-02-22T06:14:56.449Z,94.28
2023-02-22T06:15:59.282Z,94.34
2023-02-22T06:17:02.041Z,94.39
2023-02-22T06:18:05.192Z,93.77
2023-02-22T06:19:06.980Z,93.72
2023-02-22T06:20:11.213Z,94.24
2023-02-22T06:21:14.543Z,93.81
2023-02-22T06:22:18.198Z,93.76
2023-02-22T06:23:20.912Z,93.99
2023-02-22T06:24:23.631Z,93.70
2023-02-22T06:25:31.149Z,93.94
2023-02-22T06:26:32.911Z,93.84
2023-02-22T06:27:54.309Z,93.89
2023-02-22T06:28:56.100Z,93.69
2023-02-22T06:29:58.969Z,93.92
2023-02-22T06:31:00.852Z,94.09
2023-02-22T06:32:03.722Z,94.04
2023-02-22T06:33:05.588Z,94.17
2023-02-22T06:34:08.379Z,93.86
2023-02-22T06:35:10.527Z,94.14
2023-02-22T06:36:13.264Z,94.00
2023-02-22T06:37:15.253Z,93.74
2023-02-22T06:38:22.815Z,94.07
2023-02-22T06:39:25.571Z,94.15
2023-02-22T06:40:29.860Z,94.23
2023-02-22T06:41:31.685Z,94.52
2023-02-22T06:42:34.471Z,94.35
2023-02-22T06:43:37.315Z,94.60
2023-02-22T06:44:39.153Z,94.41
2023-02-22T06:45:41.973Z,94.10
2023-02-22T06:46:48.344Z,94.11
2023-02-22T06:47:51.087Z,94.05
2023-02-22T06:48:52.867Z,93.95
2023-02-22T06:49:56.382Z,93.93
2023-02-22T06:50:58.187Z,93.79
2023-02-22T06:52:00.916Z,94.08
2023-02-22T06:53:03.923Z,94.45
2023-02-22T06:54:06.184Z,94.61
2023-02-22T06:55:09.109Z,94.37
2023-02-22T06:56:13.292Z,94.52
2023-02-22T06:57:15.394Z,94.37
2023-02-22T06:58:18.138Z,94.33
2023-02-22T06:59:20.093Z,94.39
2023-02-22T07:00:25.585Z,94.38
2023-02-22T07:01:28.546Z,94.45
2023-02-22T07:02:30.458Z,94.10
2023-02-22T07:03:33.348Z,94.19
2023-02-22T07:04:37.174Z,94.02
2023-02-22T07:05:39.151Z,93.83
2023-02-22T07:06:46.925Z,94.35
2023-02-22T07:07:49.604Z,94.38
2023-02-22T07:08:52.433Z,94.49
2023-02-22T07:09:54.329Z,94.49
2023-02-22T07:10:57.216Z,94.32
2023-02-22T07:12:01.043Z,94.09
2023-02-22T07:13:04.141Z,94.22
2023-02-22T07:14:06.063Z,94.29
2023-02-22T07:15:09.918Z,94.35
2023-02-22T07:16:12.705Z,94.08
2023-02-22T07:17:15.484Z,94.38
2023-02-22T07:18:17.376Z,94.03
2023-02-22T07:19:20.758Z,93.79
2023-02-22T07:20:24.392Z,94.23
2023-02-22T07:21:27.816Z,94.06
2023-02-22T07:22:30.790Z,94.23
2023-02-22T07:23:33.554Z,94.30
2023-02-22T07:24:35.381Z,94.33
2023-02-22T07:25:38.136Z,93.84
2023-02-22T07:26:40.690Z,94.18
2023-02-22T07:27:44.962Z,93.85
2023-02-22T07:28:47.176Z,93.62
2023-02-22T07:29:49.934Z,93.41
2023-02-22T07:30:51.788Z,93.64
2023-02-22T07:31:54.581Z,93.81
2023-02-22T07:32:57.144Z,93.40
2023-02-22T07:33:59.946Z,93.48
2023-02-22T07:35:02.908Z,93.22
2023-02-22T07:36:06.413Z,93.74
2023-02-22T07:37:08.213Z,93.11
2023-02-22T07:38:11.080Z,92.93
2023-02-22T07:39:12.881Z,92.81
2023-02-22T07:40:16.690Z,93.18
2023-02-22T07:41:19.686Z,93.12
2023-02-22T07:42:21.541Z,92.90
2023-02-22T07:43:27.283Z,93.13
2023-02-22T07:44:29.106Z,92.71
2023-02-22T07:45:33.395Z,92.00
2023-02-22T07:46:35.336Z,92.30
2023-02-22T07:47:38.094Z,91.90
2023-02-22T07:48:40.874Z,92.36
2023-02-22T07:49:42.763Z,92.62
2023-02-22T07:50:46.127Z,92.47
2023-02-22T07:51:47.915Z,92.16
2023-02-22T07:52:52.479Z,91.51
2023-02-22T07:53:55.578Z,91.27
2023-02-22T07:54:57.458Z,91.52
2023-02-22T07:56:01.096Z,91.05
2023-02-22T07:57:03.381Z,91.23
2023-02-22T07:58:07.473Z,91.47
2023-02-22T07:59:10.682Z,91.28
2023-02-22T08:00:16.334Z,90.72
2023-02-22T08:01:19.293Z,91.29
2023-02-22T08:02:21.880Z,91.16
2023-02-22T08:03:26.524Z,90.73
2023-02-22T08:04:28.337Z,90.28
2023-02-22T08:05:32.602Z,90.69
2023-02-22T08:06:35.380Z,90.10
2023-02-22T08:07:37.239Z,90.41
2023-02-22T08:08:40.537Z,89.90
2023-02-22T08:09:42.361Z,89.81
2023-02-22T08:10:45.449Z,89.24
2023-02-22T08:11:47.260Z,88.97
2023-02-22T08:12:50.388Z,88.96
2023-02-22T08:13:53.188Z,89.48
2023-02-22T08:14:56.674Z,89.43
2023-02-22T08:15:59.709Z,89.00
2023-02-22T08:17:01.520Z,88.48
2023-02-22T08:18:09.022Z,87.75
2023-02-22T08:19:10.804Z,87.25
2023-02-22T08:20:13.913Z,87.75
2023-02-22T08:21:17.718Z,87.60
2023-02-22T08:22:21.951Z,87.73
2023-02-22T08:23:26.938Z,86.89
2023-02-22T08:24:28.982Z,86.72
2023-02-22T08:25:32.175Z,86.37
2023-02-22T08:26:34.945Z,86.74
2023-02-22T08:27:36.745Z,87.08
2023-02-22T08:28:39.588Z,87.10
2023-02-22T08:29:41.376Z,86.86
2023-02-22T08:30:45.788Z,86.86
2023-02-22T08:31:51.826Z,86.68
2023-02-22T08:32:54.031Z,86.52
2023-02-22T08:33:57.096Z,85.59
2023-02-22T08:34:58.967Z,85.96
2023-02-22T08:36:02.311Z,84.80
2023-02-22T08:37:04.523Z,85.14
2023-02-22T08:38:08.368Z,84.71
2023-02-22T08:39:10.501Z,84.54
2023-02-22T08:40:15.066Z,84.78
2023-02-22T08:41:18.545Z,84.50
2023-02-22T08:42:20.526Z,84.27
2023-02-22T08:43:23.999Z,84.12
2023-02-22T08:44:25.870Z,84.13
2023-02-22T08:45:29.172Z,83.89
2023-02-22T08:46:33.452Z,83.33
2023-02-22T08:47:35.295Z,82.67
2023-02-22T08:48:38.281Z,81.92
2023-02-22T08:49:40.160Z,82.57
2023-02-22T08:50:44.230Z,82.38
2023-02-22T08:51:47.215Z,82.61
2023-02-22T08:52:51.246Z,82.98
2023-02-22T08:53:54.780Z,82.85
2023-02-22T08:54:56.566Z,83.47
2023-02-22T08:55:59.541Z,83.08
2023-02-22T08:57:01.354Z,82.85
2023-02-22T08:58:05.890Z,82.23
2023-02-22T08:59:07.972Z,81.09
2023-02-22T09:00:12.063Z,81.20
2023-02-22T09:01:19.284Z,80.22
2023-02-22T09:02:25.371Z,80.29
2023-02-22T09:03:28.138Z,79.99
2023-02-22T09:04:29.979Z,79.71
2023-02-22T09:05:33.353Z,78.97
2023-02-22T09:06:36.256Z,78.97
2023-02-22T09:07:42.232Z,78.71
2023-02-22T09:08:45.171Z,78.40
2023-02-22T09:09:46.975Z,78.63
2023-02-22T09:10:50.990Z,77.53
2023-02-22T09:11:53.329Z,77.74
2023-02-22T09:12:56.724Z,77.66
2023-02-22T09:13:59.615Z,77.22
2023-02-22T09:15:01.555Z,76.19
2023-02-22T09:16:04.671Z,75.51
2023-02-22T09:17:06.503Z,75.74
2023-02-22T09:18:42.310Z,75.21
2023-02-22T09:19:45.380Z,75.44
2023-02-22T09:20:48.430Z,75.64
2023-02-22T09:21:53.472Z,75.43
2023-02-22T09:22:56.421Z,74.91
2023-02-22T09:24:01.371Z,74.68
2023-02-22T09:25:15.872Z,74.79
2023-02-22T09:26:19.690Z,74.30
2023-02-22T09:27:21.513Z,73.89
2023-02-22T09:28:24.948Z,73.97
2023-02-22T09:29:27.779Z,73.64
2023-02-22T09:30:32.878Z,73.24
2023-02-22T09:31:36.776Z,72.80
2023-02-22T09:32:38.897Z,72.64
2023-02-22T09:33:43.859Z,72.47
2023-02-22T09:34:46.939Z,72.20
2023-02-22T09:35:50.998Z,72.40
2023-02-22T09:36:52.753Z,72.23
2023-02-22T09:37:56.862Z,71.00
2023-02-22T09:38:59.062Z,71.84
2023-02-22T09:40:01.893Z,69.69
2023-02-22T09:41:21.438Z,72.10
2023-02-22T09:42:27.885Z,71.92
2023-02-22T09:43:40.521Z,72.32
2023-02-22T09:44:45.640Z,71.99
2023-02-22T09:46:12.418Z,71.27
2023-02-22T09:47:18.146Z,71.75
2023-02-22T09:48:22.312Z,71.53
2023-02-22T09:49:31.300Z,71.21
2023-02-22T09:50:35.954Z,71.39
2023-02-22T09:52:01.054Z,71.08
2023-02-22T09:53:05.772Z,70.91
2023-02-22T09:54:14.904Z,70.57
2023-02-22T09:55:28.774Z,70.39
2023-02-22T09:56:33.843Z,69.94
2023-02-22T09:57:40.515Z,69.68
2023-02-22T09:58:45.992Z,69.29
2023-02-22T10:00:12.844Z,69.15
2023-02-22T10:01:23.878Z,69.93
2023-02-22T10:02:29.721Z,69.74
2023-02-22T10:03:36.781Z,70.14
2023-02-22T10:04:44.399Z,70.55
2023-02-22T10:05:52.941Z,70.29
2023-02-22T10:07:05.988Z,70.07
2023-02-22T10:08:12.754Z,70.19
2023-02-22T10:09:16.020Z,69.41
2023-02-22T10:10:19.350Z,69.68
2023-02-22T10:11:37.584Z,70.44
2023-02-22T10:12:44.334Z,69.48
2023-02-22T10:13:51.888Z,69.81
2023-02-22T10:15:16.157Z,69.56
2023-02-22T10:16:22.241Z,69.95
2023-02-22T10:17:29.635Z,69.63
2023-02-22T10:18:44.457Z,69.21
2023-02-22T10:19:55.847Z,69.24
2023-02-22T10:21:02.631Z,69.10
2023-02-22T10:22:22.740Z,68.55
2023-02-22T10:23:29.963Z,68.43
2023-02-22T10:24:39.765Z,69.19
2023-02-22T10:25:42.978Z,69.39
2023-02-22T10:26:46.949Z,69.51
2023-02-22T10:27:53.174Z,69.21
2023-02-22T10:28:59.810Z,68.73
2023-02-22T10:30:22.158Z,68.82
2023-02-22T10:31:31.586Z,68.25
2023-02-22T10:32:43.340Z,68.55
2023-02-22T10:33:48.657Z,68.96
2023-02-22T10:34:52.946Z,68.84
2023-02-22T10:35:56.551Z,67.72
2023-02-22T10:37:03.505Z,67.78
2023-02-22T10:38:16.904Z,68.29
2023-02-22T10:39:27.397Z,68.67
2023-02-22T10:40:35.853Z,68.15
2023-02-22T10:41:44.567Z,67.95
2023-02-22T10:42:47.299Z,67.94
2023-02-22T10:43:50.130Z,67.98
2023-02-22T10:44:52.076Z,67.68
2023-02-22T10:45:56.789Z,67.87
2023-02-22T10:46:59.770Z,68.19
2023-02-22T10:48:08.513Z,68.10
2023-02-22T10:49:35.893Z,67.96
2023-02-22T10:50:41.024Z,67.68
2023-02-22T10:51:43.796Z,67.92
2023-02-22T10:52:45.625Z,67.84
2023-02-22T10:53:57.506Z,67.66
2023-02-22T10:55:14.553Z,67.72
2023-02-22T10:56:21.332Z,67.31
2023-02-22T10:57:26.987Z,66.78
2023-02-22T10:58:29.746Z,66.82
2023-02-22T10:59:33.390Z,67.56
2023-02-22T11:00:38.240Z,67.79
2023-02-22T11:01:40.814Z,68.18
2023-02-22T11:02:52.343Z,67.86
2023-02-22T11:03:59.336Z,67.71
2023-02-22T11:05:03.535Z,67.13
2023-02-22T11:06:19.207Z,67.11
2023-02-22T11:07:27.145Z,66.46
2023-02-22T11:08:32.204Z,66.05
2023-02-22T11:09:46.957Z,65.34
2023-02-22T11:10:49.681Z,66.01
2023-02-22T11:12:09.139Z,66.00
2023-02-22T11:13:17.483Z,65.37
2023-02-22T11:14:27.961Z,64.89
2023-02-22T11:15:30.035Z,65.23
2023-02-22T11:16:34.159Z,65.06
2023-02-22T11:17:37.405Z,65.06
2023-02-22T11:18:39.156Z,64.80
2023-02-22T11:19:48.019Z,64.83
2023-02-22T11:21:00.613Z,64.38
2023-02-22T11:22:11.951Z,64.12
2023-02-22T11:23:14.830Z,64.38
2023-02-22T11:25:21.923Z,64.75
2023-02-22T11:26:24.699Z,64.38
2023-02-22T11:27:39.117Z,64.72
2023-02-22T11:28:49.162Z,64.47
2023-02-22T11:29:52.789Z,64.48
2023-02-22T11:30:55.583Z,64.32
2023-02-22T11:31:59.188Z,64.34
2023-02-22T11:33:11.311Z,64.23
2023-02-22T11:34:28.940Z,64.12
2023-02-22T11:35:35.383Z,63.42
2023-02-22T11:36:40.891Z,63.58
2023-02-22T11:37:44.490Z,63.56
2023-02-22T11:38:56.177Z,63.79
2023-02-22T11:40:07.277Z,63.59
2023-02-22T11:41:18.588Z,63.86
2023-02-22T11:42:23.125Z,63.66
2023-02-22T11:43:25.985Z,63.43
2023-02-22T11:44:30.741Z,63.64
2023-02-22T11:45:33.001Z,63.80
2023-02-22T11:46:37.444Z,63.32
2023-02-22T11:47:54.999Z,63.37
2023-02-22T11:48:58.718Z,63.12
2023-02-22T11:50:02.227Z,63.29
2023-02-22T11:51:14.603Z,62.75
2023-02-22T11:52:22.881Z,62.21
2023-02-22T11:53:29.884Z,62.28
2023-02-22T11:54:53.559Z,62.65
2023-02-22T11:56:11.152Z,62.41
2023-02-22T11:57:33.810Z,61.93
2023-02-22T11:58:42.406Z,62.75
2023-02-22T11:59:55.624Z,62.21
2023-02-22T12:01:00.727Z,62.68
2023-02-22T12:02:18.796Z,62.50
2023-02-22T12:03:32.644Z,61.28
2023-02-22T12:05:01.304Z,62.38
2023-02-22T12:06:11.782Z,62.45
2023-02-22T12:07:22.291Z,62.60
2023-02-22T12:08:34.308Z,63.17
2023-02-22T12:09:41.747Z,62.91
2023-02-22T12:10:55.259Z,62.77
2023-02-22T12:12:06.089Z,62.35
2023-02-22T12:13:21.875Z,62.61
2023-02-22T12:14:27.820Z,61.89
2023-02-22T12:15:33.124Z,62.44
2023-02-22T12:16:44.160Z,62.14
2023-02-22T12:18:00.696Z,61.57
2023-02-22T12:19:11.302Z,62.38
2023-02-22T12:20:21.916Z,62.52
2023-02-22T12:21:28.413Z,62.86
2023-02-22T12:22:33.456Z,62.92
2023-02-22T12:23:44.794Z,62.76
2023-02-22T12:24:57.948Z,62.24
2023-02-22T12:26:11.860Z,62.42
2023-02-22T12:27:17.704Z,62.37
2023-02-22T12:28:24.950Z,62.57
2023-02-22T12:29:31.240Z,62.96
2023-02-22T12:30:37.291Z,62.31
2023-02-22T12:31:45.454Z,62.28
2023-02-22T12:32:49.781Z,61.06
2023-02-22T12:33:59.817Z,60.76
2023-02-22T12:35:06.494Z,60.91
2023-02-22T12:36:11.496Z,60.97
2023-02-22T12:37:18.933Z,61.15
2023-02-22T12:38:24.401Z,61.24
2023-02-22T12:39:52.737Z,61.59
2023-02-22T12:41:01.505Z,61.58
2023-02-22T12:42:09.728Z,62.10
2023-02-22T12:43:16.965Z,61.90
2023-02-22T12:44:22.247Z,61.12
2023-02-22T12:45:31.785Z,61.87
2023-02-22T12:46:37.486Z,61.83
2023-02-22T12:47:46.531Z,61.12
2023-02-22T12:48:53.317Z,61.44
2023-02-22T12:50:00.437Z,60.71
2023-02-22T12:51:22.715Z,61.08
2023-02-22T12:52:36.253Z,59.54
2023-02-22T12:53:42.045Z,59.67
2023-02-22T12:54:48.109Z,59.53
2023-02-22T12:55:54.168Z,59.26
2023-02-22T12:57:00.823Z,59.19
2023-02-22T12:58:08.125Z,59.46
2023-02-22T12:59:15.954Z,59.35
2023-02-22T13:00:23.241Z,59.30
2023-02-22T13:01:30.062Z,59.32
2023-02-22T13:02:37.012Z,59.27
2023-02-22T13:03:40.241Z,59.51
2023-02-22T13:04:43.079Z,59.54
2023-02-22T13:05:51.256Z,59.88
2023-02-22T13:07:01.144Z,59.90
2023-02-22T13:08:13.796Z,60.20
2023-02-22T13:09:48.416Z,59.45
2023-02-22T13:11:03.813Z,59.98
2023-02-22T13:12:10.654Z,60.41
2023-02-22T13:13:19.028Z,60.41
2023-02-22T13:14:38.524Z,60.34
2023-02-22T13:15:45.918Z,60.29
2023-02-22T13:16:52.700Z,60.59
2023-02-22T13:18:01.792Z,60.69
2023-02-22T13:19:18.635Z,60.76
2023-02-22T13:20:24.016Z,60.51
2023-02-22T13:21:32.286Z,60.73
2023-02-22T13:22:58.837Z,60.96
2023-02-22T13:24:05.383Z,61.21
2023-02-22T13:25:14.302Z,61.22
2023-02-22T13:26:20.625Z,61.00
2023-02-22T13:27:26.091Z,61.19
2023-02-22T13:28:33.032Z,61.13
2023-02-22T13:29:38.087Z,61.09
2023-02-22T13:30:45.462Z,61.04
2023-02-22T13:31:59.304Z,60.66
2023-02-22T13:33:26.080Z,60.92
2023-02-22T13:34:40.172Z,61.14
2023-02-22T13:35:51.772Z,61.22
2023-02-22T13:37:06.803Z,61.43
2023-02-22T13:38:49.584Z,61.47
2023-02-22T13:40:06.648Z,61.41
2023-02-22T13:41:27.890Z,61.32
2023-02-22T13:42:43.944Z,61.76
2023-02-22T13:44:04.907Z,62.18
2023-02-22T13:45:27.458Z,62.43
2023-02-22T13:47:06.122Z,62.11
2023-02-22T13:48:17.488Z,62.52
2023-02-22T13:49:28.101Z,62.30
2023-02-22T13:50:41.434Z,62.50
2023-02-22T13:51:46.945Z,62.69
2023-02-22T13:52:50.223Z,62.22
2023-02-22T13:53:55.956Z,62.07
2023-02-22T13:55:00.873Z,61.72
2023-02-22T13:56:02.890Z,61.94
2023-02-22T13:57:19.019Z,62.38
2023-02-22T13:58:20.997Z,62.03
2023-02-22T13:59:27.747Z,62.13
2023-02-22T14:00:41.685Z,61.88
2023-02-22T14:01:46.702Z,62.02
2023-02-22T14:03:02.173Z,61.42
2023-02-22T14:04:21.683Z,61.56
2023-02-22T14:05:50.998Z,61.33
2023-02-22T14:06:54.094Z,61.58
2023-02-22T14:07:56.200Z,61.38
2023-02-22T14:08:58.976Z,61.19
2023-02-22T14:10:01.718Z,61.18
2023-02-22T14:11:05.905Z,60.86
2023-02-22T14:12:10.079Z,60.74
2023-02-22T14:13:13.025Z,60.90